createdAt,value
2022-08-26T00:09:16.373Z,26.92
2022-08-26T00:31:03.155Z,27.30
2022-08-26T00:52:49.271Z,26.32
2022-08-26T01:14:38.466Z,26.91
2022-08-26T01:36:25.644Z,28.60
2022-08-26T01:58:18.496Z,25.89
2022-08-26T02:20:06.088Z,26.86
2022-08-26T02:42:00.149Z,25.94
2022-08-26T03:03:46.063Z,26.35
2022-08-26T03:25:34.252Z,28.16
2022-08-26T03:47:21.574Z,25.84
2022-08-26T04:09:09.734Z,25.98
2022-08-26T04:30:56.012Z,27.47
2022-08-26T04:52:42.353Z,24.57
2022-08-26T05:14:28.249Z,25.78
2022-08-26T05:36:16.832Z,27.73
2022-08-26T05:58:02.702Z,25.36
2022-08-26T06:19:48.552Z,26.60
2022-08-26T06:41:36.621Z,26.33
2022-08-26T07:03:24.784Z,27.60
2022-08-26T07:25:11.824Z,26.52
2022-08-26T07:46:58.946Z,28.65
2022-08-26T08:08:44.919Z,34.70
2022-08-26T08:30:31.582Z,42.20
2022-08-26T08:52:30.838Z,49.83
2022-08-26T09:14:16.633Z,56.49
2022-08-26T09:36:22.960Z,54.22
2022-08-26T09:58:13.920Z,44.83
2022-08-26T10:20:04.128Z,46.19
2022-08-26T10:41:55.295Z,53.95
2022-08-26T11:03:50.294Z,59.31
2022-08-26T11:25:56.255Z,63.64
2022-08-26T11:47:43.302Z,65.19
2022-08-26T12:09:31.807Z,65.85
2022-08-26T12:31:27.455Z,65.31
2022-08-26T12:53:23.771Z,64.27
2022-08-26T13:15:12.590Z,63.03
2022-08-26T13:36:59.584Z,60.51
2022-08-26T13:58:46.119Z,58.55
2022-08-26T14:20:33.549Z,55.86
2022-08-26T14:42:22.521Z,46.75
2022-08-26T15:04:08.437Z,40.13
2022-08-26T15:25:54.667Z,37.76
2022-08-26T15:47:55.244Z,40.01
2022-08-26T16:09:49.110Z,40.73
2022-08-26T16:31:40.737Z,38.56
2022-08-26T16:53:26.857Z,34.94
2022-08-26T17:15:15.579Z,32.57
2022-08-26T17:37:01.703Z,30.94
2022-08-26T17:58:50.957Z,29.60
2022-08-26T18:20:39.123Z,28.55
2022-08-26T18:42:24.821Z,27.63
2022-08-26T19:04:15.288Z,26.72
2022-08-26T19:26:03.700Z,25.88
2022-08-26T19:47:50.066Z,25.20
2022-08-26T20:09:36.805Z,24.61
2022-08-26T20:31:23.093Z,24.09
2022-08-26T20:53:09.560Z,23.75
2022-08-26T21:14:55.583Z,23.36
2022-08-26T21:36:41.951Z,22.94
2022-08-26T21:58:27.818Z,22.66
2022-08-26T22:20:16.518Z,22.27
2022-08-26T22:42:01.684Z,25.54
2022-08-26T23:03:47.646Z,24.24
2022-08-26T23:25:34.244Z,22.49
2022-08-26T23:47:20.496Z,24.95
